sensor_id;sensor_type;location;lat;lon;timestamp;temperature;humidity
66144;SHT31;52947;50.842;6.084;2023-04-01T00:00:23;8.68;92.94
66144;SHT31;52947;50.842;6.084;2023-04-01T00:02:51;8.76;92.57
66144;SHT31;52947;50.842;6.084;2023-04-01T00:05:21;8.75;92.42
66144;SHT31;52947;50.842;6.084;2023-04-01T00:07:50;8.71;92.77
66144;SHT31;52947;50.842;6.084;2023-04-01T00:10:18;8.75;92.67
66144;SHT31;52947;50.842;6.084;2023-04-01T00:12:46;8.72;93.15
66144;SHT31;52947;50.842;6.084;2023-04-01T00:15:14;8.75;92.72
66144;SHT31;52947;50.842;6.084;2023-04-01T00:17:42;8.72;92.80
66144;SHT31;52947;50.842;6.084;2023-04-01T00:20:11;8.68;93.23
66144;SHT31;52947;50.842;6.084;2023-04-01T00:22:42;8.71;93.22
66144;SHT31;52947;50.842;6.084;2023-04-01T00:25:10;8.68;93.36
66144;SHT31;52947;50.842;6.084;2023-04-01T00:27:38;8.71;93.02
66144;SHT31;52947;50.842;6.084;2023-04-01T00:30:07;8.72;92.87
66144;SHT31;52947;50.842;6.084;2023-04-01T00:32:36;8.68;93.04
66144;SHT31;52947;50.842;6.084;2023-04-01T00:35:04;8.69;92.97
66144;SHT31;52947;50.842;6.084;2023-04-01T00:37:34;8.65;93.17
66144;SHT31;52947;50.842;6.084;2023-04-01T00:40:24;8.64;93.32
66144;SHT31;52947;50.842;6.084;2023-04-01T00:42:52;8.71;93.02
66144;SHT31;52947;50.842;6.084;2023-04-01T00:45:26;8.65;93.21
66144;SHT31;52947;50.842;6.084;2023-04-01T00:47:54;8.68;93.15
66144;SHT31;52947;50.842;6.084;2023-04-01T00:50:24;8.71;92.70
66144;SHT31;52947;50.842;6.084;2023-04-01T00:52:53;8.68;92.95
66144;SHT31;52947;50.842;6.084;2023-04-01T00:55:23;8.66;93.06
66144;SHT31;52947;50.842;6.084;2023-04-01T00:57:52;8.64;93.12
66144;SHT31;52947;50.842;6.084;2023-04-01T01:00:20;8.71;92.65
66144;SHT31;52947;50.842;6.084;2023-04-01T01:02:49;8.69;92.66
66144;SHT31;52947;50.842;6.084;2023-04-01T01:05:21;8.69;92.72
66144;SHT31;52947;50.842;6.084;2023-04-01T01:07:58;8.68;92.74
66144;SHT31;52947;50.842;6.084;2023-04-01T01:10:32;8.66;92.97
66144;SHT31;52947;50.842;6.084;2023-04-01T01:13:07;8.68;92.50
66144;SHT31;52947;50.842;6.084;2023-04-01T01:15:43;8.71;92.70
66144;SHT31;52947;50.842;6.084;2023-04-01T01:18:19;8.66;93.11
66144;SHT31;52947;50.842;6.084;2023-04-01T01:21:07;8.64;92.95
66144;SHT31;52947;50.842;6.084;2023-04-01T01:27:01;8.69;92.48
66144;SHT31;52947;50.842;6.084;2023-04-01T01:32:49;8.64;92.56
66144;SHT31;52947;50.842;6.084;2023-04-01T01:35:27;8.62;92.74
66144;SHT31;52947;50.842;6.084;2023-04-01T01:38:01;8.65;92.43
66144;SHT31;52947;50.842;6.084;2023-04-01T01:40:31;8.65;92.65
66144;SHT31;52947;50.842;6.084;2023-04-01T01:43:05;8.64;92.32
66144;SHT31;52947;50.842;6.084;2023-04-01T01:45:35;8.61;92.28
66144;SHT31;52947;50.842;6.084;2023-04-01T01:48:06;8.65;92.07
66144;SHT31;52947;50.842;6.084;2023-04-01T01:50:38;8.64;91.71
66144;SHT31;52947;50.842;6.084;2023-04-01T01:53:11;8.58;92.14
66144;SHT31;52947;50.842;6.084;2023-04-01T01:55:41;8.56;91.83
66144;SHT31;52947;50.842;6.084;2023-04-01T01:58:13;8.58;91.77
66144;SHT31;52947;50.842;6.084;2023-04-01T02:00:44;8.55;91.58
66144;SHT31;52947;50.842;6.084;2023-04-01T02:03:13;8.54;91.44
66144;SHT31;52947;50.842;6.084;2023-04-01T02:05:44;8.54;91.26
66144;SHT31;52947;50.842;6.084;2023-04-01T02:08:16;8.56;91.26
66144;SHT31;52947;50.842;6.084;2023-04-01T02:10:50;8.58;91.69
66144;SHT31;52947;50.842;6.084;2023-04-01T02:13:26;8.55;92.13
66144;SHT31;52947;50.842;6.084;2023-04-01T02:15:59;8.55;92.03
66144;SHT31;52947;50.842;6.084;2023-04-01T02:18:29;8.54;92.36
66144;SHT31;52947;50.842;6.084;2023-04-01T02:21:00;8.64;93.09
66144;SHT31;52947;50.842;6.084;2023-04-01T02:23:28;9.02;92.64
66144;SHT31;52947;50.842;6.084;2023-04-01T02:25:56;9.07;92.28
66144;SHT31;52947;50.842;6.084;2023-04-01T02:28:25;9.19;91.38
66144;SHT31;52947;50.842;6.084;2023-04-01T02:30:54;9.30;91.79
66144;SHT31;52947;50.842;6.084;2023-04-01T02:33:23;9.24;90.95
66144;SHT31;52947;50.842;6.084;2023-04-01T02:35:51;9.23;91.73
66144;SHT31;52947;50.842;6.084;2023-04-01T02:38:21;9.19;91.46
66144;SHT31;52947;50.842;6.084;2023-04-01T02:40:51;9.16;91.70
66144;SHT31;52947;50.842;6.084;2023-04-01T02:43:23;9.17;91.56
66144;SHT31;52947;50.842;6.084;2023-04-01T02:45:51;9.07;91.84
66144;SHT31;52947;50.842;6.084;2023-04-01T02:48:19;9.17;92.25
66144;SHT31;52947;50.842;6.084;2023-04-01T02:50:48;9.10;92.20
66144;SHT31;52947;50.842;6.084;2023-04-01T02:53:16;9.03;92.25
66144;SHT31;52947;50.842;6.084;2023-04-01T02:55:46;9.02;97.61
66144;SHT31;52947;50.842;6.084;2023-04-01T02:58:17;9.07;98.19
66144;SHT31;52947;50.842;6.084;2023-04-01T03:00:45;9.07;97.39
66144;SHT31;52947;50.842;6.084;2023-04-01T03:03:13;9.22;94.85
66144;SHT31;52947;50.842;6.084;2023-04-01T03:05:41;9.09;94.81
66144;SHT31;52947;50.842;6.084;2023-04-01T03:08:09;9.24;94.75
66144;SHT31;52947;50.842;6.084;2023-04-01T03:10:38;9.33;94.20
66144;SHT31;52947;50.842;6.084;2023-04-01T03:13:08;9.33;93.69
66144;SHT31;52947;50.842;6.084;2023-04-01T03:15:36;9.38;92.93
66144;SHT31;52947;50.842;6.084;2023-04-01T03:18:04;9.41;92.91
66144;SHT31;52947;50.842;6.084;2023-04-01T03:20:32;9.17;92.80
66144;SHT31;52947;50.842;6.084;2023-04-01T03:23:00;9.24;92.80
66144;SHT31;52947;50.842;6.084;2023-04-01T03:25:28;9.15;92.30
66144;SHT31;52947;50.842;6.084;2023-04-01T03:27:57;9.19;92.33
66144;SHT31;52947;50.842;6.084;2023-04-01T03:30:27;9.20;92.33
66144;SHT31;52947;50.842;6.084;2023-04-01T03:32:57;9.20;92.81
66144;SHT31;52947;50.842;6.084;2023-04-01T03:35:26;9.12;92.25
66144;SHT31;52947;50.842;6.084;2023-04-01T03:37:54;9.19;92.22
66144;SHT31;52947;50.842;6.084;2023-04-01T03:40:22;9.07;92.20
66144;SHT31;52947;50.842;6.084;2023-04-01T03:42:50;9.19;92.02
66144;SHT31;52947;50.842;6.084;2023-04-01T03:45:19;9.24;92.38
66144;SHT31;52947;50.842;6.084;2023-04-01T03:47:48;9.34;92.32
66144;SHT31;52947;50.842;6.084;2023-04-01T03:50:16;9.46;91.98
66144;SHT31;52947;50.842;6.084;2023-04-01T03:52:44;9.62;91.48
66144;SHT31;52947;50.842;6.084;2023-04-01T03:55:12;9.71;91.25
66144;SHT31;52947;50.842;6.084;2023-04-01T03:57:40;9.64;92.07
66144;SHT31;52947;50.842;6.084;2023-04-01T04:00:16;9.57;91.04
66144;SHT31;52947;50.842;6.084;2023-04-01T04:02:49;9.47;91.55
66144;SHT31;52947;50.842;6.084;2023-04-01T04:05:25;9.54;91.32
66144;SHT31;52947;50.842;6.084;2023-04-01T04:07:53;9.61;91.18
66144;SHT31;52947;50.842;6.084;2023-04-01T04:10:21;9.52;91.13
66144;SHT31;52947;50.842;6.084;2023-04-01T04:12:52;9.48;91.83
66144;SHT31;52947;50.842;6.084;2023-04-01T04:15:21;9.36;91.57
66144;SHT31;52947;50.842;6.084;2023-04-01T04:17:51;9.51;91.71
66144;SHT31;52947;50.842;6.084;2023-04-01T04:20:19;9.50;91.34
66144;SHT31;52947;50.842;6.084;2023-04-01T04:22:47;9.43;91.69
66144;SHT31;52947;50.842;6.084;2023-04-01T04:25:15;9.30;92.39
66144;SHT31;52947;50.842;6.084;2023-04-01T04:27:43;9.40;92.15
66144;SHT31;52947;50.842;6.084;2023-04-01T04:30:13;9.20;92.43
66144;SHT31;52947;50.842;6.084;2023-04-01T04:32:41;9.20;92.88
66144;SHT31;52947;50.842;6.084;2023-04-01T04:35:12;9.19;92.75
66144;SHT31;52947;50.842;6.084;2023-04-01T04:37:40;9.24;92.39
66144;SHT31;52947;50.842;6.084;2023-04-01T04:40:09;9.27;92.65
66144;SHT31;52947;50.842;6.084;2023-04-01T04:42:37;9.37;92.45
66144;SHT31;52947;50.842;6.084;2023-04-01T04:45:11;9.30;92.28
66144;SHT31;52947;50.842;6.084;2023-04-01T04:47:47;9.30;93.12
66144;SHT31;52947;50.842;6.084;2023-04-01T04:50:17;9.20;92.17
66144;SHT31;52947;50.842;6.084;2023-04-01T04:52:44;9.31;92.81
66144;SHT31;52947;50.842;6.084;2023-04-01T04:55:13;9.34;92.26
66144;SHT31;52947;50.842;6.084;2023-04-01T04:57:44;9.47;91.58
66144;SHT31;52947;50.842;6.084;2023-04-01T05:00:12;9.34;91.91
66144;SHT31;52947;50.842;6.084;2023-04-01T05:02:59;9.46;91.99
66144;SHT31;52947;50.842;6.084;2023-04-01T05:05:28;9.33;92.25
66144;SHT31;52947;50.842;6.084;2023-04-01T05:07:57;9.30;92.34
66144;SHT31;52947;50.842;6.084;2023-04-01T05:10:25;9.30;92.43
66144;SHT31;52947;50.842;6.084;2023-04-01T05:12:53;9.29;92.46
66144;SHT31;52947;50.842;6.084;2023-04-01T05:15:22;9.26;92.61
66144;SHT31;52947;50.842;6.084;2023-04-01T05:17:50;9.34;92.98
66144;SHT31;52947;50.842;6.084;2023-04-01T05:20:18;9.24;92.41
66144;SHT31;52947;50.842;6.084;2023-04-01T05:22:48;9.27;92.55
66144;SHT31;52947;50.842;6.084;2023-04-01T05:25:16;9.27;92.34
66144;SHT31;52947;50.842;6.084;2023-04-01T05:27:44;9.27;92.60
66144;SHT31;52947;50.842;6.084;2023-04-01T05:30:12;9.24;92.95
66144;SHT31;52947;50.842;6.084;2023-04-01T05:33:00;9.33;93.28
66144;SHT31;52947;50.842;6.084;2023-04-01T05:35:28;9.38;92.93
66144;SHT31;52947;50.842;6.084;2023-04-01T05:37:58;9.29;92.79
66144;SHT31;52947;50.842;6.084;2023-04-01T05:40:27;9.31;92.71
66144;SHT31;52947;50.842;6.084;2023-04-01T05:42:55;9.57;92.97
66144;SHT31;52947;50.842;6.084;2023-04-01T05:45:23;9.46;92.37
66144;SHT31;52947;50.842;6.084;2023-04-01T05:48:14;9.26;92.34
66144;SHT31;52947;50.842;6.084;2023-04-01T05:50:43;9.20;92.46
66144;SHT31;52947;50.842;6.084;2023-04-01T05:53:12;9.34;92.25
66144;SHT31;52947;50.842;6.084;2023-04-01T05:55:42;9.41;92.02
66144;SHT31;52947;50.842;6.084;2023-04-01T05:58:10;9.36;91.96
66144;SHT31;52947;50.842;6.084;2023-04-01T06:00:43;9.36;92.30
66144;SHT31;52947;50.842;6.084;2023-04-01T06:03:15;9.38;91.80
66144;SHT31;52947;50.842;6.084;2023-04-01T06:05:44;9.34;91.98
66144;SHT31;52947;50.842;6.084;2023-04-01T06:08:15;9.23;92.37
66144;SHT31;52947;50.842;6.084;2023-04-01T06:10:55;9.27;92.50
66144;SHT31;52947;50.842;6.084;2023-04-01T06:13:37;9.24;92.30
66144;SHT31;52947;50.842;6.084;2023-04-01T06:16:10;9.12;92.57
66144;SHT31;52947;50.842;6.084;2023-04-01T06:18:58;9.44;92.50
66144;SHT31;52947;50.842;6.084;2023-04-01T06:21:57;9.41;92.23
66144;SHT31;52947;50.842;6.084;2023-04-01T06:24:44;9.37;91.95
66144;SHT31;52947;50.842;6.084;2023-04-01T06:27:27;9.36;91.90
66144;SHT31;52947;50.842;6.084;2023-04-01T06:30:05;9.43;91.61
66144;SHT31;52947;50.842;6.084;2023-04-01T06:33:02;9.43;91.68
66144;SHT31;52947;50.842;6.084;2023-04-01T06:35:50;9.48;91.78
66144;SHT31;52947;50.842;6.084;2023-04-01T06:38:26;9.26;91.90
66144;SHT31;52947;50.842;6.084;2023-04-01T06:44:16;9.40;92.03
66144;SHT31;52947;50.842;6.084;2023-04-01T06:47:10;9.36;92.13
66144;SHT31;52947;50.842;6.084;2023-04-01T06:50:03;9.54;91.87
66144;SHT31;52947;50.842;6.084;2023-04-01T06:52:58;9.54;91.68
66144;SHT31;52947;50.842;6.084;2023-04-01T06:55:48;9.29;91.95
66144;SHT31;52947;50.842;6.084;2023-04-01T06:59:00;9.38;92.21
66144;SHT31;52947;50.842;6.084;2023-04-01T07:01:33;9.44;92.34
66144;SHT31;52947;50.842;6.084;2023-04-01T07:04:05;9.41;92.24
66144;SHT31;52947;50.842;6.084;2023-04-01T07:06:36;9.29;94.91
66144;SHT31;52947;50.842;6.084;2023-04-01T07:09:09;9.51;93.08
66144;SHT31;52947;50.842;6.084;2023-04-01T07:12:10;9.60;92.37
66144;SHT31;52947;50.842;6.084;2023-04-01T07:15:23;9.73;91.91
66144;SHT31;52947;50.842;6.084;2023-04-01T07:17:56;9.55;91.30
66144;SHT31;52947;50.842;6.084;2023-04-01T07:20:27;9.62;91.67
66144;SHT31;52947;50.842;6.084;2023-04-01T07:22:58;9.60;91.79
66144;SHT31;52947;50.842;6.084;2023-04-01T07:25:55;9.48;92.33
66144;SHT31;52947;50.842;6.084;2023-04-01T07:28:30;9.44;92.21
66144;SHT31;52947;50.842;6.084;2023-04-01T07:31:18;9.57;92.42
66144;SHT31;52947;50.842;6.084;2023-04-01T07:33:55;9.51;91.98
66144;SHT31;52947;50.842;6.084;2023-04-01T07:36:33;9.36;91.94
66144;SHT31;52947;50.842;6.084;2023-04-01T07:39:08;9.34;92.41
66144;SHT31;52947;50.842;6.084;2023-04-01T07:41:56;9.31;92.85
66144;SHT31;52947;50.842;6.084;2023-04-01T07:44:29;9.34;92.56
66144;SHT31;52947;50.842;6.084;2023-04-01T07:47:31;9.38;92.61
66144;SHT31;52947;50.842;6.084;2023-04-01T07:50:09;9.40;92.80
66144;SHT31;52947;50.842;6.084;2023-04-01T07:52:46;9.58;91.97
66144;SHT31;52947;50.842;6.084;2023-04-01T07:55:23;9.46;91.70
66144;SHT31;52947;50.842;6.084;2023-04-01T07:58:03;9.67;91.90
66144;SHT31;52947;50.842;6.084;2023-04-01T08:00:43;9.74;91.27
66144;SHT31;52947;50.842;6.084;2023-04-01T08:03:31;9.68;91.88
66144;SHT31;52947;50.842;6.084;2023-04-01T08:06:10;9.64;91.78
66144;SHT31;52947;50.842;6.084;2023-04-01T08:08:51;9.62;91.99
66144;SHT31;52947;50.842;6.084;2023-04-01T08:11:55;9.73;91.51
66144;SHT31;52947;50.842;6.084;2023-04-01T08:15:07;9.98;91.34
66144;SHT31;52947;50.842;6.084;2023-04-01T08:18:06;9.87;91.08
66144;SHT31;52947;50.842;6.084;2023-04-01T08:20:40;9.97;91.45
66144;SHT31;52947;50.842;6.084;2023-04-01T08:23:13;9.94;91.10
66144;SHT31;52947;50.842;6.084;2023-04-01T08:25:48;9.78;91.24
66144;SHT31;52947;50.842;6.084;2023-04-01T08:28:24;9.77;91.30
66144;SHT31;52947;50.842;6.084;2023-04-01T08:30:58;9.85;91.87
66144;SHT31;52947;50.842;6.084;2023-04-01T08:33:30;9.88;91.08
66144;SHT31;52947;50.842;6.084;2023-04-01T08:36:07;9.91;91.21
66144;SHT31;52947;50.842;6.084;2023-04-01T08:38:41;9.87;91.08
66144;SHT31;52947;50.842;6.084;2023-04-01T08:44:46;10.11;90.91
66144;SHT31;52947;50.842;6.084;2023-04-01T08:47:45;10.09;90.93
66144;SHT31;52947;50.842;6.084;2023-04-01T08:50:36;10.25;89.95
66144;SHT31;52947;50.842;6.084;2023-04-01T08:53:21;10.33;89.70
66144;SHT31;52947;50.842;6.084;2023-04-01T08:56:06;10.18;89.68
66144;SHT31;52947;50.842;6.084;2023-04-01T08:59:08;10.15;90.75
66144;SHT31;52947;50.842;6.084;2023-04-01T09:01:50;10.26;90.58
66144;SHT31;52947;50.842;6.084;2023-04-01T09:05:04;10.38;89.95
66144;SHT31;52947;50.842;6.084;2023-04-01T09:07:43;10.29;90.17
66144;SHT31;52947;50.842;6.084;2023-04-01T09:10:34;10.32;90.46
66144;SHT31;52947;50.842;6.084;2023-04-01T09:17:04;10.25;90.40
66144;SHT31;52947;50.842;6.084;2023-04-01T09:19:51;10.38;89.90
66144;SHT31;52947;50.842;6.084;2023-04-01T09:22:28;10.38;89.97
66144;SHT31;52947;50.842;6.084;2023-04-01T09:27:57;10.05;90.71
66144;SHT31;52947;50.842;6.084;2023-04-01T09:30:53;10.39;89.80
66144;SHT31;52947;50.842;6.084;2023-04-01T09:33:49;10.45;89.07
66144;SHT31;52947;50.842;6.084;2023-04-01T09:36:43;10.25;89.76
66144;SHT31;52947;50.842;6.084;2023-04-01T09:45:42;10.12;90.34
66144;SHT31;52947;50.842;6.084;2023-04-01T09:48:22;10.36;89.74
66144;SHT31;52947;50.842;6.084;2023-04-01T09:50:58;10.50;89.97
66144;SHT31;52947;50.842;6.084;2023-04-01T09:53:40;10.56;89.21
66144;SHT31;52947;50.842;6.084;2023-04-01T09:59:43;10.49;90.17
66144;SHT31;52947;50.842;6.084;2023-04-01T10:17:56;10.60;89.01
66144;SHT31;52947;50.842;6.084;2023-04-01T10:20:47;10.64;88.92
66144;SHT31;52947;50.842;6.084;2023-04-01T10:24:14;10.61;89.26
66144;SHT31;52947;50.842;6.084;2023-04-01T10:30:46;10.50;89.46
66144;SHT31;52947;50.842;6.084;2023-04-01T10:33:58;10.52;89.07
66144;SHT31;52947;50.842;6.084;2023-04-01T10:36:49;10.52;89.12
66144;SHT31;52947;50.842;6.084;2023-04-01T10:39:56;10.67;89.47
66144;SHT31;52947;50.842;6.084;2023-04-01T10:43:11;10.85;89.09
66144;SHT31;52947;50.842;6.084;2023-04-01T10:46:16;10.96;88.99
66144;SHT31;52947;50.842;6.084;2023-04-01T10:56:00;10.59;89.25
66144;SHT31;52947;50.842;6.084;2023-04-01T10:59:15;10.64;89.41
66144;SHT31;52947;50.842;6.084;2023-04-01T11:02:39;10.81;89.37
66144;SHT31;52947;50.842;6.084;2023-04-01T11:06:03;10.83;88.99
66144;SHT31;52947;50.842;6.084;2023-04-01T11:11:53;11.03;88.84
66144;SHT31;52947;50.842;6.084;2023-04-01T11:21:23;10.94;88.70
66144;SHT31;52947;50.842;6.084;2023-04-01T11:23:58;11.07;88.53
66144;SHT31;52947;50.842;6.084;2023-04-01T11:26:48;11.24;88.58
66144;SHT31;52947;50.842;6.084;2023-04-01T11:32:45;11.24;87.92
66144;SHT31;52947;50.842;6.084;2023-04-01T11:38:24;11.00;88.20
66144;SHT31;52947;50.842;6.084;2023-04-01T11:41:00;10.91;88.56
66144;SHT31;52947;50.842;6.084;2023-04-01T11:43:38;10.87;88.75
66144;SHT31;52947;50.842;6.084;2023-04-01T11:46:52;10.91;88.58
66144;SHT31;52947;50.842;6.084;2023-04-01T11:49:38;10.94;89.02
66144;SHT31;52947;50.842;6.084;2023-04-01T11:52:29;11.18;88.32
66144;SHT31;52947;50.842;6.084;2023-04-01T11:55:18;11.15;88.20
66144;SHT31;52947;50.842;6.084;2023-04-01T11:57:57;11.17;88.40
66144;SHT31;52947;50.842;6.084;2023-04-01T12:00:36;11.14;88.57
66144;SHT31;52947;50.842;6.084;2023-04-01T12:03:21;11.11;88.51
66144;SHT31;52947;50.842;6.084;2023-04-01T12:06:02;11.03;89.12
66144;SHT31;52947;50.842;6.084;2023-04-01T12:08:36;11.18;89.03
66144;SHT31;52947;50.842;6.084;2023-04-01T12:11:15;11.21;89.28
66144;SHT31;52947;50.842;6.084;2023-04-01T12:13:50;11.21;88.80
66144;SHT31;52947;50.842;6.084;2023-04-01T12:16:43;11.21;89.34
66144;SHT31;52947;50.842;6.084;2023-04-01T12:19:20;11.36;88.68
66144;SHT31;52947;50.842;6.084;2023-04-01T12:22:00;11.24;88.64
66144;SHT31;52947;50.842;6.084;2023-04-01T12:24:49;11.12;89.42
66144;SHT31;52947;50.842;6.084;2023-04-01T12:27:40;11.30;88.91
66144;SHT31;52947;50.842;6.084;2023-04-01T12:30:31;11.32;88.01
66144;SHT31;52947;50.842;6.084;2023-04-01T12:33:19;11.31;88.34
66144;SHT31;52947;50.842;6.084;2023-04-01T12:35:59;11.20;88.46
66144;SHT31;52947;50.842;6.084;2023-04-01T12:38:36;11.22;88.10
66144;SHT31;52947;50.842;6.084;2023-04-01T12:41:09;11.14;88.35
66144;SHT31;52947;50.842;6.084;2023-04-01T12:44:09;11.17;88.31
66144;SHT31;52947;50.842;6.084;2023-04-01T12:46:51;11.31;88.43
66144;SHT31;52947;50.842;6.084;2023-04-01T12:49:46;11.58;88.16
66144;SHT31;52947;50.842;6.084;2023-04-01T12:52:25;11.48;88.01
66144;SHT31;52947;50.842;6.084;2023-04-01T12:55:17;11.43;87.82
66144;SHT31;52947;50.842;6.084;2023-04-01T13:01:06;11.49;88.31
66144;SHT31;52947;50.842;6.084;2023-04-01T13:03:55;11.51;88.36
66144;SHT31;52947;50.842;6.084;2023-04-01T13:06:38;11.34;87.83
66144;SHT31;52947;50.842;6.084;2023-04-01T13:09:19;11.12;87.99
66144;SHT31;52947;50.842;6.084;2023-04-01T13:12:00;11.10;88.72
66144;SHT31;52947;50.842;6.084;2023-04-01T13:15:12;11.10;88.66
66144;SHT31;52947;50.842;6.084;2023-04-01T13:17:47;11.01;89.03
66144;SHT31;52947;50.842;6.084;2023-04-01T13:20:27;11.00;89.36
66144;SHT31;52947;50.842;6.084;2023-04-01T13:23:07;10.81;89.31
66144;SHT31;52947;50.842;6.084;2023-04-01T13:25:43;10.67;89.76
66144;SHT31;52947;50.842;6.084;2023-04-01T13:28:21;10.77;89.97
66144;SHT31;52947;50.842;6.084;2023-04-01T13:30:57;10.87;89.60
66144;SHT31;52947;50.842;6.084;2023-04-01T13:33:36;10.74;89.98
66144;SHT31;52947;50.842;6.084;2023-04-01T13:36:14;10.67;90.00
66144;SHT31;52947;50.842;6.084;2023-04-01T13:38:56;10.64;90.34
66144;SHT31;52947;50.842;6.084;2023-04-01T13:41:42;10.69;90.43
66144;SHT31;52947;50.842;6.084;2023-04-01T13:44:20;10.64;90.40
66144;SHT31;52947;50.842;6.084;2023-04-01T13:50:06;10.85;89.71
66144;SHT31;52947;50.842;6.084;2023-04-01T13:53:12;10.85;89.52
66144;SHT31;52947;50.842;6.084;2023-04-01T13:56:00;10.84;89.36
66144;SHT31;52947;50.842;6.084;2023-04-01T13:58:47;10.74;89.46
66144;SHT31;52947;50.842;6.084;2023-04-01T14:01:21;10.71;89.43
66144;SHT31;52947;50.842;6.084;2023-04-01T14:04:10;10.70;89.39
66144;SHT31;52947;50.842;6.084;2023-04-01T14:06:54;10.60;89.47
66144;SHT31;52947;50.842;6.084;2023-04-01T14:09:45;10.55;89.75
66144;SHT31;52947;50.842;6.084;2023-04-01T14:12:29;10.52;90.39
66144;SHT31;52947;50.842;6.084;2023-04-01T14:17:57;10.83;89.81
66144;SHT31;52947;50.842;6.084;2023-04-01T14:20:36;10.76;89.49
66144;SHT31;52947;50.842;6.084;2023-04-01T14:23:21;10.77;89.57
66144;SHT31;52947;50.842;6.084;2023-04-01T14:26:15;10.70;89.49
66144;SHT31;52947;50.842;6.084;2023-04-01T14:28:56;10.83;89.95
66144;SHT31;52947;50.842;6.084;2023-04-01T14:31:51;10.93;90.19
66144;SHT31;52947;50.842;6.084;2023-04-01T14:34:34;10.93;89.78
66144;SHT31;52947;50.842;6.084;2023-04-01T14:37:15;10.91;90.23
66144;SHT31;52947;50.842;6.084;2023-04-01T14:40:05;10.84;89.94
66144;SHT31;52947;50.842;6.084;2023-04-01T14:42:48;10.85;90.26
66144;SHT31;52947;50.842;6.084;2023-04-01T14:45:44;10.79;89.49
66144;SHT31;52947;50.842;6.084;2023-04-01T14:48:23;10.77;89.47
66144;SHT31;52947;50.842;6.084;2023-04-01T14:50:54;10.71;90.00
66144;SHT31;52947;50.842;6.084;2023-04-01T14:53:27;10.63;90.05
66144;SHT31;52947;50.842;6.084;2023-04-01T14:55:57;10.59;90.47
66144;SHT31;52947;50.842;6.084;2023-04-01T14:58:41;10.40;90.35
66144;SHT31;52947;50.842;6.084;2023-04-01T15:01:34;10.35;90.92
66144;SHT31;52947;50.842;6.084;2023-04-01T15:07:04;10.48;91.00
66144;SHT31;52947;50.842;6.084;2023-04-01T15:09:43;10.49;90.95
66144;SHT31;52947;50.842;6.084;2023-04-01T15:12:18;10.48;90.76
66144;SHT31;52947;50.842;6.084;2023-04-01T15:14:59;10.49;90.37
66144;SHT31;52947;50.842;6.084;2023-04-01T15:17:48;10.49;91.11
66144;SHT31;52947;50.842;6.084;2023-04-01T15:20:32;10.48;90.93
66144;SHT31;52947;50.842;6.084;2023-04-01T15:23:25;10.43;90.73
66144;SHT31;52947;50.842;6.084;2023-04-01T15:26:15;10.28;91.19
66144;SHT31;52947;50.842;6.084;2023-04-01T15:28:54;10.32;91.67
66144;SHT31;52947;50.842;6.084;2023-04-01T15:31:26;10.32;91.42
66144;SHT31;52947;50.842;6.084;2023-04-01T15:34:11;10.22;90.79
66144;SHT31;52947;50.842;6.084;2023-04-01T15:36:47;10.20;90.96
66144;SHT31;52947;50.842;6.084;2023-04-01T15:39:24;10.06;91.04
66144;SHT31;52947;50.842;6.084;2023-04-01T15:42:11;10.03;91.54
66144;SHT31;52947;50.842;6.084;2023-04-01T15:44:53;10.06;91.23
66144;SHT31;52947;50.842;6.084;2023-04-01T15:47:32;10.12;91.14
66144;SHT31;52947;50.842;6.084;2023-04-01T15:50:34;10.08;91.12
66144;SHT31;52947;50.842;6.084;2023-04-01T15:53:32;10.09;91.26
66144;SHT31;52947;50.842;6.084;2023-04-01T15:56:09;10.09;91.19
66144;SHT31;52947;50.842;6.084;2023-04-01T15:58:47;10.03;91.44
66144;SHT31;52947;50.842;6.084;2023-04-01T16:01:27;10.03;91.56
66144;SHT31;52947;50.842;6.084;2023-04-01T16:04:00;10.01;91.51
66144;SHT31;52947;50.842;6.084;2023-04-01T16:06:49;9.92;91.70
66144;SHT31;52947;50.842;6.084;2023-04-01T16:09:40;9.94;91.67
66144;SHT31;52947;50.842;6.084;2023-04-01T16:12:16;9.89;91.74
66144;SHT31;52947;50.842;6.084;2023-04-01T16:14:55;9.82;91.73
66144;SHT31;52947;50.842;6.084;2023-04-01T16:17:36;9.67;92.10
66144;SHT31;52947;50.842;6.084;2023-04-01T16:20:18;9.81;91.87
66144;SHT31;52947;50.842;6.084;2023-04-01T16:22:55;9.68;92.37
66144;SHT31;52947;50.842;6.084;2023-04-01T16:25:33;9.62;92.43
66144;SHT31;52947;50.842;6.084;2023-04-01T16:28:15;9.64;92.21
66144;SHT31;52947;50.842;6.084;2023-04-01T16:30:48;9.68;92.26
66144;SHT31;52947;50.842;6.084;2023-04-01T16:33:32;9.67;92.08
66144;SHT31;52947;50.842;6.084;2023-04-01T16:36:10;9.65;91.86
66144;SHT31;52947;50.842;6.084;2023-04-01T16:38:45;9.71;91.88
66144;SHT31;52947;50.842;6.084;2023-04-01T16:41:17;9.73;91.58
66144;SHT31;52947;50.842;6.084;2023-04-01T16:43:49;9.84;91.60
66144;SHT31;52947;50.842;6.084;2023-04-01T16:46:28;9.91;91.33
66144;SHT31;52947;50.842;6.084;2023-04-01T16:49:03;9.88;91.46
66144;SHT31;52947;50.842;6.084;2023-04-01T16:51:40;9.87;91.44
66144;SHT31;52947;50.842;6.084;2023-04-01T16:54:18;9.84;91.18
66144;SHT31;52947;50.842;6.084;2023-04-01T16:56:55;9.79;90.85
66144;SHT31;52947;50.842;6.084;2023-04-01T16:59:27;9.75;91.63
66144;SHT31;52947;50.842;6.084;2023-04-01T17:02:04;9.70;90.82
66144;SHT31;52947;50.842;6.084;2023-04-01T17:04:42;9.67;91.07
66144;SHT31;52947;50.842;6.084;2023-04-01T17:07:18;9.64;91.06
66144;SHT31;52947;50.842;6.084;2023-04-01T17:10:03;9.52;91.02
66144;SHT31;52947;50.842;6.084;2023-04-01T17:12:40;9.61;91.21
66144;SHT31;52947;50.842;6.084;2023-04-01T17:15:18;9.54;91.64
66144;SHT31;52947;50.842;6.084;2023-04-01T17:17:55;9.60;91.52
66144;SHT31;52947;50.842;6.084;2023-04-01T17:20:32;9.55;90.88
66144;SHT31;52947;50.842;6.084;2023-04-01T17:23:13;9.46;90.92
66144;SHT31;52947;50.842;6.084;2023-04-01T17:25:52;9.37;91.23
66144;SHT31;52947;50.842;6.084;2023-04-01T17:28:32;9.29;91.72
66144;SHT31;52947;50.842;6.084;2023-04-01T17:31:09;9.27;91.72
66144;SHT31;52947;50.842;6.084;2023-04-01T17:34:04;9.29;92.10
66144;SHT31;52947;50.842;6.084;2023-04-01T17:36:46;9.23;92.11
66144;SHT31;52947;50.842;6.084;2023-04-01T17:39:29;9.23;92.71
66144;SHT31;52947;50.842;6.084;2023-04-01T17:42:06;9.19;92.95
66144;SHT31;52947;50.842;6.084;2023-04-01T17:44:45;9.17;92.70
66144;SHT31;52947;50.842;6.084;2023-04-01T17:47:38;9.12;92.82
66144;SHT31;52947;50.842;6.084;2023-04-01T17:50:17;9.09;92.82
66144;SHT31;52947;50.842;6.084;2023-04-01T17:53:03;9.06;92.89
66144;SHT31;52947;50.842;6.084;2023-04-01T17:55:44;9.02;92.93
66144;SHT31;52947;50.842;6.084;2023-04-01T17:58:18;8.96;92.79
66144;SHT31;52947;50.842;6.084;2023-04-01T18:00:58;8.97;93.01
66144;SHT31;52947;50.842;6.084;2023-04-01T18:03:54;8.92;93.05
66144;SHT31;52947;50.842;6.084;2023-04-01T18:06:31;8.86;93.21
66144;SHT31;52947;50.842;6.084;2023-04-01T18:09:13;8.83;93.12
66144;SHT31;52947;50.842;6.084;2023-04-01T18:11:55;8.79;93.07
66144;SHT31;52947;50.842;6.084;2023-04-01T18:14:48;8.80;93.16
66144;SHT31;52947;50.842;6.084;2023-04-01T18:17:23;8.80;93.28